createdAt,value
2023-02-01T06:16:48.257Z,3.17
2023-02-01T06:19:15.831Z,3.67
2023-02-01T06:21:43.161Z,3.43
2023-02-01T06:24:10.824Z,3.50
2023-02-01T06:26:40.073Z,3.70
2023-02-01T06:29:11.411Z,3.93
2023-02-01T06:31:39.331Z,3.63
2023-02-01T06:34:07.276Z,3.30
2023-02-01T06:36:34.702Z,3.60
2023-02-01T06:39:02.791Z,4.07
2023-02-01T06:41:30.263Z,3.10
2023-02-01T06:43:57.800Z,3.80
2023-02-01T06:46:25.387Z,2.90
2023-02-01T06:48:52.849Z,3.30
2023-02-01T06:51:24.471Z,3.07
2023-02-01T06:53:52.281Z,2.90
2023-02-01T06:56:20.684Z,3.20
2023-02-01T06:58:48.243Z,3.80
2023-02-01T07:01:16.236Z,3.17
2023-02-01T07:03:44.330Z,3.00
2023-02-01T07:06:11.730Z,3.03
2023-02-01T07:08:39.679Z,3.67
2023-02-01T07:11:08.371Z,3.23
2023-02-01T07:13:36.064Z,3.30
2023-02-01T07:16:04.916Z,3.33
2023-02-01T07:18:32.892Z,3.23
2023-02-01T07:21:00.766Z,3.57
2023-02-01T07:23:28.650Z,3.33
2023-02-01T07:25:59.995Z,3.87
2023-02-01T09:00:06.299Z,4.60
2023-02-01T09:02:33.755Z,4.50
2023-02-01T09:05:01.128Z,4.17
2023-02-01T09:07:28.577Z,4.57
2023-02-01T09:09:57.425Z,3.97
2023-02-01T09:12:24.862Z,3.63
2023-02-01T09:14:52.366Z,4.27
2023-02-01T09:17:19.905Z,3.80
2023-02-01T09:19:47.231Z,4.73
2023-02-01T09:22:14.609Z,4.00
2023-02-01T09:24:41.979Z,4.43
2023-02-01T09:27:09.471Z,4.10
2023-02-01T09:29:36.936Z,3.80
2023-02-01T09:32:04.888Z,4.10
2023-02-01T09:34:32.776Z,4.27
2023-02-01T09:37:00.242Z,3.83
2023-02-01T09:39:27.632Z,3.60
2023-02-01T09:42:01.165Z,4.00
2023-02-01T09:44:43.249Z,4.00
2023-02-01T09:47:16.137Z,3.73
2023-02-01T09:49:53.843Z,4.17
2023-02-01T09:52:26.185Z,4.40
2023-02-01T09:55:01.942Z,4.30
2023-02-01T09:57:35.216Z,3.93
2023-02-01T10:00:07.014Z,4.50
2023-02-01T10:02:40.844Z,4.63
2023-02-01T10:05:14.202Z,3.53
2023-02-01T10:08:08.128Z,4.43
2023-02-01T10:10:49.548Z,4.00
2023-02-01T10:13:26.072Z,4.27
2023-02-01T10:16:05.857Z,4.10
2023-02-01T10:18:52.102Z,4.00
2023-02-01T10:21:19.553Z,4.37
2023-02-01T10:23:46.999Z,4.83
2023-02-01T10:26:21.104Z,3.90
2023-02-01T10:28:50.665Z,4.03
2023-02-01T10:31:18.654Z,4.10
2023-02-01T10:33:47.634Z,4.07
2023-02-01T10:36:18.276Z,5.77
2023-02-01T10:38:46.033Z,3.57
2023-02-01T10:41:17.703Z,4.00
2023-02-01T10:43:46.672Z,3.83
2023-02-01T10:46:14.500Z,4.10
2023-02-01T10:48:41.954Z,4.30
2023-02-01T10:51:16.734Z,4.20
2023-02-01T10:53:47.719Z,4.63
2023-02-01T10:56:15.387Z,4.23
2023-02-01T10:58:47.699Z,6.67
2023-02-01T11:01:19.660Z,4.40
2023-02-01T11:03:47.348Z,4.30
2023-02-01T11:06:27.791Z,4.90
2023-02-01T11:09:10.735Z,9.17
2023-02-01T11:11:50.435Z,5.60
2023-02-01T11:14:27.043Z,12.27
2023-02-01T11:16:56.178Z,5.70
2023-02-01T11:19:23.747Z,8.73
2023-02-01T11:21:52.759Z,6.57
2023-02-01T11:24:24.875Z,4.90
2023-02-01T11:26:53.854Z,4.83
2023-02-01T11:29:24.194Z,5.23
2023-02-01T11:31:52.037Z,6.33
2023-02-01T11:34:22.037Z,6.30
2023-02-01T11:36:51.177Z,4.53
2023-02-01T11:39:24.733Z,4.90
2023-02-01T11:42:14.298Z,4.53
2023-02-01T11:44:42.876Z,4.55
2023-02-01T11:47:22.847Z,4.23
2023-02-01T11:49:51.731Z,4.77
2023-02-01T11:52:38.314Z,4.53
2023-02-01T11:55:18.975Z,4.83
2023-02-01T11:58:05.202Z,4.80
2023-02-01T12:00:53.160Z,5.10
2023-02-01T12:03:38.918Z,4.50
2023-02-01T12:06:12.525Z,4.97
2023-02-01T12:08:59.714Z,4.90
2023-02-01T12:12:02.526Z,5.03
2023-02-01T12:14:48.661Z,5.17
2023-02-01T12:17:25.122Z,4.83
2023-02-01T12:20:01.526Z,5.23
2023-02-01T12:22:29.561Z,5.03
2023-02-01T12:24:57.106Z,5.33
2023-02-01T12:27:36.959Z,5.40
2023-02-01T12:30:16.538Z,5.80
2023-02-01T12:32:51.043Z,5.63
2023-02-01T12:35:27.169Z,5.20
2023-02-01T12:38:12.994Z,5.57
2023-02-01T12:41:04.837Z,14.27
2023-02-01T12:43:45.413Z,6.13
2023-02-01T12:46:15.436Z,5.23
2023-02-01T12:49:00.660Z,5.47
2023-02-01T12:51:33.706Z,7.17
2023-02-01T12:54:10.618Z,7.23
2023-02-01T12:56:44.641Z,5.80
2023-02-01T12:59:24.979Z,6.33
2023-02-01T13:02:00.072Z,5.63
2023-02-01T13:04:30.486Z,5.63
2023-02-01T13:07:05.423Z,6.20
2023-02-01T13:09:38.437Z,6.17
2023-02-01T13:12:08.800Z,6.00
2023-02-01T13:14:53.698Z,7.93
2023-02-01T13:17:29.298Z,5.77
2023-02-01T13:19:56.826Z,5.63
2023-02-01T13:22:27.665Z,5.63
2023-02-01T13:24:59.773Z,6.60
2023-02-01T13:27:33.930Z,9.00
2023-02-01T13:30:14.169Z,5.50
2023-02-01T13:33:51.097Z,6.40
2023-02-01T13:35:40.934Z,7.90
2023-02-01T13:38:27.283Z,5.47
2023-02-01T13:40:54.677Z,5.20
2023-02-01T13:43:27.932Z,6.70
2023-02-01T13:45:57.104Z,9.60
2023-02-01T13:48:30.732Z,7.40
2023-02-01T13:50:59.797Z,5.17
2023-02-01T13:53:32.301Z,4.87
2023-02-01T13:56:04.173Z,6.70
2023-02-01T13:58:38.864Z,5.20
2023-02-01T14:01:24.442Z,5.10
2023-02-01T14:03:51.802Z,5.03
2023-02-01T14:06:28.682Z,5.60
2023-02-01T14:09:14.525Z,5.90
2023-02-01T14:11:44.350Z,5.57
2023-02-01T14:14:18.147Z,5.50
2023-02-01T14:17:00.641Z,5.90
2023-02-01T14:19:28.149Z,5.63
2023-02-01T14:22:02.846Z,6.10
2023-02-01T14:24:34.573Z,5.87
2023-02-01T14:27:03.610Z,5.70
2023-02-01T14:29:35.922Z,5.80
2023-02-01T14:32:03.903Z,5.73
2023-02-01T14:34:33.560Z,5.80
2023-02-01T14:37:02.727Z,5.90
2023-02-01T14:39:32.702Z,5.80
2023-02-01T14:42:02.420Z,5.57
2023-02-01T14:44:32.060Z,6.03
2023-02-01T14:47:18.178Z,5.67
2023-02-01T14:49:57.127Z,5.83
2023-02-01T14:52:30.492Z,5.70
2023-02-01T14:55:01.510Z,6.10
2023-02-01T14:57:29.475Z,5.37
2023-02-01T15:00:20.427Z,5.90
2023-02-01T15:02:50.694Z,5.33
2023-02-01T15:05:24.995Z,5.07
2023-02-01T15:07:53.223Z,6.03
2023-02-01T15:10:21.962Z,4.97
2023-02-01T15:12:50.475Z,5.20
2023-02-01T15:15:22.203Z,4.77
2023-02-01T15:18:01.157Z,5.73
2023-02-01T15:20:32.942Z,5.57
2023-02-01T15:23:02.757Z,5.57
2023-02-01T15:25:31.856Z,6.03
2023-02-01T15:28:01.407Z,5.50
2023-02-01T15:30:30.523Z,5.57
2023-02-01T15:33:10.253Z,5.67
2023-02-01T15:35:43.666Z,5.40
2023-02-01T15:38:23.102Z,5.10
2023-02-01T15:41:02.136Z,5.27
2023-02-01T15:43:33.471Z,6.37
2023-02-01T15:46:02.610Z,6.00
2023-02-01T15:48:34.327Z,5.33
2023-02-01T15:51:02.263Z,5.63
2023-02-01T15:53:32.205Z,5.93
2023-02-01T15:56:01.365Z,6.43
2023-02-01T15:58:29.065Z,6.60
2023-02-01T16:00:58.686Z,6.97
2023-02-01T16:03:38.458Z,7.07
2023-02-01T16:06:07.825Z,7.80
2023-02-01T16:08:37.741Z,8.43
2023-02-01T16:11:11.323Z,6.63
2023-02-01T16:13:38.698Z,8.80
2023-02-01T16:16:09.105Z,9.60
2023-02-01T16:18:36.602Z,9.60
2023-02-01T16:21:03.945Z,10.63
2023-02-01T16:23:32.491Z,9.30
2023-02-01T16:26:00.104Z,8.33
2023-02-01T16:28:27.552Z,8.27
2023-02-01T16:30:55.302Z,8.33
2023-02-01T16:33:23.196Z,7.47
2023-02-01T16:35:51.130Z,8.20
2023-02-01T16:38:22.135Z,8.10
2023-02-01T16:40:50.325Z,8.60
2023-02-01T16:43:19.730Z,8.63
2023-02-01T16:45:51.113Z,8.47
2023-02-01T16:48:25.805Z,8.37
2023-02-01T16:51:00.152Z,8.43
2023-02-01T16:53:28.956Z,8.67
2023-02-01T16:55:58.319Z,9.60
2023-02-01T16:58:29.084Z,10.93
2023-02-01T17:00:57.159Z,10.70
2023-02-01T17:03:25.285Z,11.30
2023-02-01T17:05:54.952Z,11.43
2023-02-01T17:08:35.277Z,9.17
2023-02-01T17:11:06.210Z,9.87
2023-02-01T17:13:34.098Z,9.37
2023-02-01T17:16:02.819Z,8.00
2023-02-01T17:18:33.833Z,8.73
2023-02-01T17:21:02.447Z,8.37
2023-02-01T17:23:30.711Z,8.33
2023-02-01T17:25:59.026Z,8.60
2023-02-01T17:28:26.414Z,8.50
2023-02-01T17:30:53.815Z,9.03
2023-02-01T17:33:23.714Z,9.13
2023-02-01T17:35:51.501Z,9.23
2023-02-01T17:38:19.568Z,9.60
2023-02-01T17:40:47.023Z,9.47
2023-02-01T17:43:15.438Z,9.27
2023-02-01T17:45:50.136Z,9.00
2023-02-01T17:48:18.578Z,9.10
2023-02-01T17:50:47.269Z,8.90
2023-02-01T17:53:15.137Z,9.10
2023-02-01T17:55:43.809Z,8.77
2023-02-01T17:58:12.923Z,8.37
2023-02-01T18:00:43.632Z,8.03
2023-02-01T18:03:30.808Z,8.83
2023-02-01T18:05:59.634Z,8.73
2023-02-01T18:08:28.245Z,9.43
2023-02-01T18:10:59.881Z,9.73
2023-02-01T18:13:27.948Z,8.83
2023-02-01T18:15:56.152Z,10.02
2023-02-01T18:18:23.658Z,9.03
2023-02-01T18:20:51.297Z,9.10
2023-02-01T18:23:20.255Z,8.80
2023-02-01T18:25:47.878Z,7.83
2023-02-01T18:28:16.089Z,7.70
2023-02-01T18:30:45.272Z,8.33
2023-02-01T18:33:13.939Z,7.27
2023-02-01T18:35:41.547Z,7.87
2023-02-01T18:38:09.499Z,8.00
2023-02-01T18:40:41.614Z,8.40
2023-02-01T18:43:12.357Z,8.70
2023-02-01T18:45:41.214Z,8.90
2023-02-01T18:48:10.114Z,8.73
2023-02-01T18:50:38.875Z,9.03
2023-02-01T18:53:07.699Z,7.80
2023-02-01T18:55:35.397Z,7.60
2023-02-01T18:58:04.613Z,6.73
2023-02-01T19:00:32.746Z,7.23
2023-02-01T19:03:00.289Z,8.13
2023-02-01T19:05:27.718Z,7.57
2023-02-01T19:07:55.237Z,7.00
2023-02-01T19:10:23.420Z,7.40
2023-02-01T19:12:51.212Z,7.13
2023-02-01T19:15:18.749Z,7.77
2023-02-01T19:17:47.262Z,6.70
2023-02-01T19:20:15.987Z,7.00
2023-02-01T19:22:43.501Z,7.20
2023-02-01T19:25:15.800Z,6.80
2023-02-01T19:27:43.213Z,7.10
2023-02-01T19:30:12.720Z,7.17
2023-02-01T19:32:40.886Z,7.23
2023-02-01T19:35:09.732Z,6.97
2023-02-01T19:37:38.433Z,7.63
2023-02-01T19:40:06.065Z,6.47
2023-02-01T19:42:33.474Z,6.97
2023-02-01T19:45:01.232Z,7.70
2023-02-01T19:47:28.651Z,7.37
2023-02-01T19:49:56.227Z,7.03
2023-02-01T19:52:23.595Z,6.63
2023-02-01T19:54:51.030Z,7.17
2023-02-01T19:57:18.551Z,6.80
2023-02-01T19:59:46.086Z,6.90
2023-02-01T20:02:16.203Z,7.53
2023-02-01T20:04:43.622Z,7.63
2023-02-01T20:07:11.277Z,7.27
2023-02-01T20:09:43.144Z,7.63
2023-02-01T20:12:11.246Z,7.77
2023-02-01T20:14:39.136Z,7.83
2023-02-01T20:17:07.609Z,7.70
2023-02-01T20:19:35.433Z,8.10
2023-02-01T20:22:03.206Z,8.53
2023-02-01T20:24:30.750Z,8.10
2023-02-01T20:26:59.173Z,7.70
2023-02-01T20:29:27.731Z,8.33
2023-02-01T20:31:55.150Z,9.10
2023-02-01T20:34:22.769Z,8.00
2023-02-01T20:36:50.248Z,8.30
2023-02-01T20:39:17.637Z,9.30
2023-02-01T20:41:44.974Z,10.47
2023-02-01T20:44:12.460Z,8.40
2023-02-01T20:46:39.864Z,8.80
2023-02-01T20:49:07.328Z,8.77
2023-02-01T20:51:34.750Z,8.50
2023-02-01T20:54:02.143Z,8.20
2023-02-01T20:56:29.508Z,8.63
2023-02-01T20:59:03.111Z,8.50
2023-02-01T21:01:31.185Z,7.80
2023-02-01T21:03:58.562Z,8.57
2023-02-01T21:06:25.941Z,8.60
2023-02-01T21:08:53.248Z,8.57
2023-02-01T21:11:20.870Z,8.43
2023-02-01T21:13:50.972Z,8.10
2023-02-01T21:16:19.922Z,8.60
2023-02-01T21:18:50.692Z,7.60
2023-02-01T21:21:19.009Z,7.63
2023-02-01T21:23:46.757Z,7.60
2023-02-01T21:26:15.339Z,7.80
2023-02-01T21:28:42.684Z,8.30
2023-02-01T21:31:10.459Z,7.20
2023-02-01T21:33:39.257Z,7.80
2023-02-01T21:36:07.155Z,8.00
2023-02-01T21:38:34.820Z,7.87
2023-02-01T21:41:21.006Z,7.70
2023-02-01T21:43:48.327Z,7.60
2023-02-01T21:46:15.857Z,7.53
2023-02-01T21:49:05.310Z,8.27
2023-02-01T21:51:30.647Z,7.60
2023-02-01T21:53:58.838Z,7.13
2023-02-01T21:56:26.495Z,7.27
2023-02-01T21:58:54.290Z,8.23
2023-02-01T22:01:21.914Z,8.37
2023-02-01T22:03:49.442Z,7.83
2023-02-01T22:06:27.117Z,8.30
2023-02-01T22:08:54.741Z,7.93
2023-02-01T22:11:22.528Z,7.70
2023-02-01T22:13:50.118Z,8.40
2023-02-01T22:16:21.343Z,7.93
2023-02-01T22:18:49.457Z,7.90
2023-02-01T22:21:17.486Z,7.87
2023-02-01T22:23:45.377Z,8.80
2023-02-01T22:26:13.881Z,8.20
2023-02-01T22:28:41.565Z,8.30
2023-02-01T22:31:10.150Z,8.50
2023-02-01T22:33:37.845Z,8.63
2023-02-01T22:36:05.990Z,8.80
2023-02-01T22:38:34.064Z,8.93
2023-02-01T22:41:10.726Z,9.03
2023-02-01T22:43:38.588Z,9.93
2023-02-01T22:46:07.336Z,9.83
2023-02-01T22:48:38.575Z,9.40
2023-02-01T22:51:06.649Z,8.70
2023-02-01T22:53:34.142Z,8.90
2023-02-01T22:56:02.371Z,9.00
2023-02-01T22:58:29.692Z,9.43
2023-02-01T23:00:57.086Z,12.97
2023-02-01T23:03:24.464Z,7.93
2023-02-01T23:05:51.906Z,8.13
2023-02-01T23:08:19.220Z,8.30
2023-02-01T23:10:46.611Z,8.13
2023-02-01T23:13:14.225Z,6.37
2023-02-01T23:15:41.580Z,7.13
2023-02-01T23:18:10.896Z,7.30
2023-02-01T23:20:40.837Z,8.00
2023-02-01T23:23:08.197Z,8.10
2023-02-01T23:25:35.770Z,8.30
2023-02-01T23:28:03.139Z,8.60
2023-02-01T23:30:30.455Z,8.90
2023-02-01T23:32:58.013Z,8.87
2023-02-01T23:35:25.816Z,9.90
2023-02-01T23:37:53.275Z,9.13
2023-02-01T23:40:20.690Z,10.20
2023-02-01T23:43:07.974Z,10.20
2023-02-01T23:45:35.310Z,9.77
2023-02-01T23:48:02.765Z,10.87
2023-02-01T23:50:30.189Z,10.57
2023-02-01T23:52:57.658Z,10.63
2023-02-01T23:55:25.374Z,11.83
2023-02-01T23:57:52.854Z,10.70
